createdAt,value
2019-04-06T00:02:18.859Z,0.73
2019-04-06T00:04:47.300Z,0.65
2019-04-06T00:07:15.789Z,0.34
2019-04-06T00:09:44.316Z,0.36
2019-04-06T00:12:12.740Z,0.26
2019-04-06T00:14:41.309Z,0.33
2019-04-06T00:17:09.719Z,0.47
2019-04-06T00:19:38.161Z,0.47
2019-04-06T00:22:06.606Z,0.44
2019-04-06T00:24:35.135Z,0.50
2019-04-06T00:27:03.629Z,0.72
2019-04-06T00:29:32.098Z,0.72
2019-04-06T00:32:04.974Z,0.70
2019-04-06T00:34:33.554Z,0.83
2019-04-06T00:37:01.998Z,0.83
2019-04-06T00:39:30.492Z,0.79
2019-04-06T00:41:58.960Z,0.79
2019-04-06T00:44:27.415Z,0.79
2019-04-06T00:46:55.912Z,0.65
2019-04-06T00:49:24.409Z,0.57
2019-04-06T00:51:52.808Z,0.57
2019-04-06T00:54:21.261Z,0.75
2019-04-06T00:56:49.783Z,0.59
2019-04-06T00:59:18.324Z,0.56
2019-04-06T01:01:46.848Z,0.80
2019-04-06T01:04:15.291Z,1.01
2019-04-06T01:06:43.764Z,0.77
2019-04-06T01:09:12.273Z,0.86
2019-04-06T01:11:40.771Z,0.81
2019-04-06T01:14:09.208Z,0.76
2019-04-06T01:16:37.696Z,0.66
2019-04-06T01:19:06.368Z,0.78
2019-04-06T01:21:34.794Z,0.54
2019-04-06T01:24:03.216Z,0.43
2019-04-06T01:26:31.812Z,0.43
2019-04-06T01:29:00.227Z,0.48
2019-04-06T01:31:28.739Z,0.30
2019-04-06T01:33:59.014Z,0.43
2019-04-06T01:36:27.893Z,0.38
2019-04-06T01:38:56.322Z,0.38
2019-04-06T01:41:24.983Z,0.23
2019-04-06T01:43:53.394Z,0.50
2019-04-06T01:46:23.179Z,0.50
2019-04-06T01:48:51.568Z,0.43
2019-04-06T01:51:20.262Z,0.44
2019-04-06T01:53:48.694Z,0.52
2019-04-06T01:56:18.742Z,0.76
2019-04-06T01:58:47.518Z,0.76
2019-04-06T02:01:17.610Z,0.60
2019-04-06T02:03:46.061Z,0.54
2019-04-06T02:06:14.558Z,0.78
2019-04-06T02:08:43.009Z,0.83
2019-04-06T02:11:11.501Z,0.83
2019-04-06T02:13:39.942Z,0.97
2019-04-06T02:16:08.439Z,0.90
2019-04-06T02:18:36.906Z,0.96
2019-04-06T02:21:05.439Z,0.88
2019-04-06T02:23:33.863Z,0.77
2019-04-06T02:26:02.431Z,0.77
2019-04-06T02:28:30.955Z,0.81
2019-04-06T02:31:16.074Z,0.86
2019-04-06T02:33:48.736Z,0.87
2019-04-06T02:36:35.104Z,0.57
2019-04-06T02:39:09.555Z,0.39
2019-04-06T02:41:42.680Z,0.29
2019-04-06T02:44:11.153Z,0.34
2019-04-06T02:46:39.724Z,0.29
2019-04-06T02:49:08.201Z,0.19
2019-04-06T02:51:36.625Z,0.19
2019-04-06T02:54:05.209Z,0.24
2019-04-06T02:56:45.508Z,0.27
2019-04-06T02:59:03.956Z,0.26
2019-04-06T03:01:32.393Z,0.45
2019-04-06T03:04:01.062Z,0.27
2019-04-06T03:06:30.029Z,0.09
2019-04-06T03:08:58.613Z,-0.02
2019-04-06T03:11:27.144Z,-0.03
2019-04-06T03:13:55.742Z,-0.03
2019-04-06T03:16:24.201Z,-0.05
2019-04-06T03:18:52.753Z,-0.13
2019-04-06T03:21:21.172Z,-0.13
2019-04-06T03:23:52.131Z,0.12
2019-04-06T03:26:20.105Z,0.00
2019-04-06T03:28:48.903Z,0.09
2019-04-06T03:31:22.771Z,-0.07
2019-04-06T03:33:47.659Z,-0.07
2019-04-06T03:36:16.135Z,0.11
2019-04-06T03:38:44.642Z,-0.04
2019-04-06T03:41:13.268Z,-0.08
2019-04-06T03:43:41.722Z,-0.05
2019-04-06T03:46:10.338Z,-0.10
2019-04-06T03:48:38.735Z,-0.05
2019-04-06T03:51:07.465Z,-0.10
2019-04-06T03:53:35.945Z,-0.08
2019-04-06T03:56:05.561Z,-0.12
2019-04-06T03:58:34.009Z,-0.03
2019-04-06T04:01:02.468Z,-0.10
2019-04-06T04:03:30.955Z,-0.14
2019-04-06T04:05:59.469Z,-0.12
2019-04-06T04:08:27.911Z,-0.02
2019-04-06T04:10:56.359Z,-0.02
2019-04-06T04:13:24.893Z,-0.06
2019-04-06T04:15:56.340Z,-0.10
2019-04-06T04:18:23.616Z,0.10
2019-04-06T04:20:52.083Z,0.10
2019-04-06T04:23:20.526Z,0.09
2019-04-06T04:25:48.998Z,0.02
2019-04-06T04:28:17.432Z,-0.14
2019-04-06T04:30:45.888Z,-0.21
2019-04-06T04:33:14.317Z,-0.34
2019-04-06T04:35:42.779Z,-0.36
2019-04-06T04:38:11.337Z,-0.49
2019-04-06T04:40:40.073Z,-0.66
2019-04-06T04:43:08.535Z,-0.55
2019-04-06T04:45:37.000Z,-0.53
2019-04-06T04:48:05.673Z,-0.60
2019-04-06T04:50:34.121Z,-0.58
2019-04-06T04:53:02.649Z,-0.48
2019-04-06T04:55:31.184Z,-0.51
2019-04-06T04:57:59.605Z,-0.49
2019-04-06T05:00:28.039Z,-0.51
2019-04-06T05:02:56.617Z,-0.55
2019-04-06T05:05:25.143Z,-0.48
2019-04-06T05:07:53.597Z,-0.52
2019-04-06T05:10:22.038Z,-0.44
2019-04-06T05:12:50.479Z,-0.42
2019-04-06T05:15:33.794Z,-0.42
2019-04-06T05:18:02.314Z,-0.48
2019-04-06T05:20:30.734Z,-0.44
2019-04-06T05:22:59.411Z,-0.41
2019-04-06T05:25:27.911Z,-0.29
2019-04-06T05:27:56.340Z,-0.21
2019-04-06T05:30:24.887Z,-0.23
2019-04-06T05:32:53.313Z,0.37
2019-04-06T05:35:21.793Z,0.37
2019-04-06T05:37:50.252Z,0.80
2019-04-06T05:40:18.876Z,1.10
2019-04-06T05:42:47.331Z,1.31
2019-04-06T05:45:16.023Z,1.63
2019-04-06T05:47:44.972Z,1.68
2019-04-06T05:50:13.655Z,1.85
2019-04-06T05:52:42.121Z,2.08
2019-04-06T05:55:10.672Z,2.35
2019-04-06T05:57:39.102Z,2.44
2019-04-06T06:00:10.127Z,2.61
2019-04-06T06:02:41.355Z,2.83
2019-04-06T06:05:13.424Z,3.05
2019-04-06T06:07:41.850Z,3.28
2019-04-06T06:10:10.539Z,3.40
2019-04-06T06:12:39.112Z,3.63
2019-04-06T06:15:08.081Z,3.86
2019-04-06T06:17:36.501Z,4.22
2019-04-06T06:20:07.051Z,4.51
2019-04-06T06:22:35.687Z,4.73
2019-04-06T06:25:06.443Z,5.17
2019-04-06T06:27:35.222Z,5.55
2019-04-06T06:30:05.696Z,5.59
2019-04-06T06:32:34.162Z,5.65
2019-04-06T06:35:02.762Z,5.95
2019-04-06T06:37:31.196Z,5.61
2019-04-06T06:39:59.787Z,5.39
2019-04-06T06:42:28.437Z,5.88
2019-04-06T06:44:57.311Z,6.09
2019-04-06T06:47:25.792Z,6.26
2019-04-06T06:49:54.217Z,6.37
2019-04-06T06:52:22.730Z,6.53
2019-04-06T06:54:51.170Z,6.68
2019-04-06T06:57:19.628Z,6.80
2019-04-06T06:59:48.122Z,6.93
2019-04-06T07:02:16.572Z,7.29
2019-04-06T07:04:44.992Z,7.63
2019-04-06T07:07:13.448Z,7.41
2019-04-06T07:09:41.899Z,7.62
2019-04-06T07:12:10.791Z,7.51
2019-04-06T07:14:39.372Z,7.75
2019-04-06T07:17:07.818Z,8.12
2019-04-06T07:19:36.238Z,8.40
2019-04-06T07:22:04.926Z,8.53
2019-04-06T07:24:33.367Z,8.77
2019-04-06T07:27:02.174Z,8.63
2019-04-06T07:29:30.607Z,8.54
2019-04-06T07:31:59.344Z,8.45
2019-04-06T07:34:29.312Z,8.77
2019-04-06T07:36:57.741Z,8.81
2019-04-06T07:39:26.228Z,9.20
2019-04-06T07:41:54.681Z,9.31
2019-04-06T07:44:23.204Z,10.18
2019-04-06T07:46:51.870Z,10.68
2019-04-06T07:49:20.307Z,10.89
2019-04-06T07:51:48.739Z,11.83
2019-04-06T07:54:17.210Z,12.68
2019-04-06T07:56:45.699Z,12.92
2019-04-06T07:59:14.221Z,13.52
2019-04-06T08:01:42.758Z,13.75
2019-04-06T08:04:11.457Z,13.53
2019-04-06T08:06:39.996Z,13.68
2019-04-06T08:09:08.873Z,14.19
2019-04-06T08:11:37.863Z,14.77
2019-04-06T08:14:06.417Z,14.48
2019-04-06T08:16:34.854Z,14.99
2019-04-06T08:19:03.355Z,15.84
2019-04-06T08:21:31.811Z,16.04
2019-04-06T08:24:00.239Z,16.22
2019-04-06T08:26:28.799Z,16.48
2019-04-06T08:29:01.517Z,16.51
2019-04-06T08:31:27.382Z,17.17
2019-04-06T08:33:55.831Z,17.16
2019-04-06T08:36:24.409Z,17.86
2019-04-06T08:38:52.857Z,18.11
2019-04-06T08:41:21.391Z,18.09
2019-04-06T08:43:49.886Z,18.15
2019-04-06T08:46:18.429Z,18.32
2019-04-06T08:48:46.929Z,18.29
2019-04-06T08:51:15.511Z,18.69
2019-04-06T08:53:44.114Z,18.75
2019-04-06T08:56:12.691Z,18.96
2019-04-06T08:58:41.464Z,18.89
2019-04-06T09:01:10.175Z,19.38
2019-04-06T09:03:38.617Z,19.14
2019-04-06T09:06:07.085Z,19.23
2019-04-06T09:08:35.662Z,19.17
2019-04-06T09:11:04.220Z,20.17
2019-04-06T09:13:32.712Z,20.41
2019-04-06T09:16:03.700Z,20.49
2019-04-06T09:18:31.582Z,20.31
2019-04-06T09:21:00.193Z,18.91
2019-04-06T09:23:28.667Z,19.18
2019-04-06T09:25:57.478Z,19.11
2019-04-06T09:28:25.911Z,19.66
2019-04-06T09:30:54.676Z,19.15
2019-04-06T09:33:23.149Z,19.00
2019-04-06T09:35:51.577Z,19.31
2019-04-06T09:38:20.000Z,18.37
2019-04-06T09:40:49.673Z,19.74
2019-04-06T09:43:18.861Z,18.64
2019-04-06T09:45:54.799Z,18.96
2019-04-06T09:48:41.170Z,18.24
2019-04-06T09:51:26.307Z,18.40
2019-04-06T09:54:07.334Z,18.74
2019-04-06T09:56:46.677Z,16.22
2019-04-06T09:59:19.852Z,18.08
2019-04-06T10:01:49.937Z,18.82
2019-04-06T10:04:22.414Z,17.77
2019-04-06T10:06:52.521Z,17.08
2019-04-06T10:09:40.800Z,17.58
2019-04-06T10:12:25.926Z,16.54
2019-04-06T10:15:14.981Z,16.43
2019-04-06T10:18:00.190Z,15.26
2019-04-06T10:20:30.313Z,16.01
2019-04-06T10:23:02.858Z,15.36
2019-04-06T10:25:49.493Z,15.42
2019-04-06T10:28:31.967Z,16.33
2019-04-06T10:31:02.321Z,16.02
2019-04-06T10:33:32.632Z,15.55
2019-04-06T10:36:11.277Z,16.28
2019-04-06T10:38:58.003Z,16.03
2019-04-06T10:41:40.216Z,15.05
2019-04-06T10:44:10.313Z,14.75
2019-04-06T10:46:49.493Z,15.06
2019-04-06T10:49:22.434Z,14.98
2019-04-06T10:51:55.371Z,15.48
2019-04-06T10:54:34.546Z,15.62
2019-04-06T10:57:10.089Z,15.50
2019-04-06T11:00:02.318Z,15.70
2019-04-06T11:02:46.730Z,15.87
2019-04-06T11:05:16.907Z,15.17
2019-04-06T11:07:52.744Z,15.72
2019-04-06T11:10:23.317Z,15.60
2019-04-06T11:12:59.421Z,15.56
2019-04-06T11:15:29.491Z,15.62
2019-04-06T11:18:05.039Z,15.37
2019-04-06T11:20:35.180Z,15.61
2019-04-06T11:23:21.716Z,15.50
2019-04-06T11:25:51.778Z,15.00
2019-04-06T11:28:22.008Z,13.95
2019-04-06T11:30:52.240Z,14.87
2019-04-06T11:33:28.126Z,14.41
2019-04-06T11:35:58.307Z,14.55
2019-04-06T11:38:34.303Z,15.29
2019-04-06T11:41:22.643Z,15.02
2019-04-06T11:44:09.108Z,15.94
2019-04-06T11:46:39.225Z,16.57
2019-04-06T11:49:15.100Z,16.81
2019-04-06T11:51:51.032Z,16.51
2019-04-06T11:54:21.099Z,16.54
2019-04-06T11:57:06.518Z,15.99
2019-04-06T11:59:54.656Z,15.95
2019-04-06T12:02:30.324Z,15.75
2019-04-06T12:05:03.527Z,15.68
2019-04-06T12:07:49.886Z,15.42
2019-04-06T12:10:28.817Z,15.61
2019-04-06T12:13:11.303Z,15.32
2019-04-06T12:15:47.355Z,14.74
2019-04-06T12:18:18.511Z,14.67
2019-04-06T12:21:03.843Z,15.06
2019-04-06T12:23:34.105Z,15.39
2019-04-06T12:26:13.491Z,15.13
2019-04-06T12:28:55.576Z,15.35
2019-04-06T12:31:41.797Z,14.91
2019-04-06T12:34:20.832Z,14.05
2019-04-06T12:37:08.730Z,14.48
2019-04-06T12:39:53.128Z,14.44
2019-04-06T12:42:34.982Z,13.77
2019-04-06T12:45:05.356Z,14.04
2019-04-06T12:47:41.879Z,13.81
2019-04-06T12:50:14.902Z,13.39
2019-04-06T12:52:51.413Z,13.89
2019-04-06T12:55:21.597Z,13.30
2019-04-06T12:57:55.298Z,13.85
2019-04-06T13:00:51.217Z,14.10
2019-04-06T13:03:30.142Z,13.91
2019-04-06T13:06:09.044Z,13.52
2019-04-06T13:08:44.721Z,13.10
2019-04-06T13:11:31.093Z,13.18
2019-04-06T13:14:04.439Z,13.52
2019-04-06T13:16:40.725Z,13.49
2019-04-06T13:19:10.866Z,13.23
2019-04-06T13:21:47.065Z,13.38
2019-04-06T13:24:29.182Z,13.06
2019-04-06T13:27:14.691Z,13.49
2019-04-06T13:29:44.806Z,13.42
2019-04-06T13:32:20.719Z,13.64
2019-04-06T13:34:51.123Z,13.52
2019-04-06T13:37:30.193Z,13.35
2019-04-06T13:40:09.297Z,13.54
2019-04-06T13:42:55.691Z,13.74
2019-04-06T13:45:42.361Z,13.82
2019-04-06T13:48:12.539Z,13.62
2019-04-06T13:50:51.946Z,13.55
2019-04-06T13:53:30.680Z,13.69
2019-04-06T13:56:12.684Z,13.30
2019-04-06T13:58:48.570Z,13.36
2019-04-06T14:01:21.631Z,13.45
2019-04-06T14:04:04.125Z,13.46
2019-04-06T14:06:43.361Z,13.50
2019-04-06T14:09:22.442Z,13.42
2019-04-06T14:11:53.344Z,13.23
2019-04-06T14:14:38.891Z,13.45
2019-04-06T14:17:15.033Z,13.49
2019-04-06T14:19:54.144Z,13.42
2019-04-06T14:22:24.308Z,13.32
2019-04-06T14:25:05.962Z,13.46
2019-04-06T14:27:52.618Z,13.56
2019-04-06T14:30:22.733Z,13.30
2019-04-06T14:32:52.966Z,13.20
2019-04-06T14:35:23.347Z,13.22
2019-04-06T14:38:05.774Z,13.44
2019-04-06T14:40:36.166Z,13.20
2019-04-06T14:43:09.890Z,13.26
2019-04-06T14:45:43.378Z,13.30
2019-04-06T14:48:29.884Z,13.09
2019-04-06T14:51:08.988Z,13.37
2019-04-06T14:53:39.194Z,13.32
2019-04-06T14:56:12.606Z,13.37
2019-04-06T14:58:45.520Z,13.26
2019-04-06T15:01:15.617Z,13.28
2019-04-06T15:03:54.202Z,13.25
2019-04-06T15:06:40.607Z,13.43
2019-04-06T15:09:20.514Z,13.46
2019-04-06T15:11:59.540Z,13.14
2019-04-06T15:14:29.626Z,13.29
2019-04-06T15:17:11.688Z,13.41
2019-04-06T15:19:45.562Z,13.29
2019-04-06T15:22:24.979Z,13.38
2019-04-06T15:25:10.306Z,13.30
2019-04-06T15:27:51.978Z,13.25
2019-04-06T15:30:28.214Z,13.34
2019-04-06T15:33:01.041Z,13.07
2019-04-06T15:35:39.931Z,12.65
2019-04-06T15:38:16.030Z,13.09
2019-04-06T15:40:48.841Z,13.14
2019-04-06T15:43:22.271Z,12.94
2019-04-06T15:45:58.434Z,12.77
2019-04-06T15:48:39.898Z,12.97
2019-04-06T15:51:14.943Z,12.85
2019-04-06T15:53:53.881Z,12.95
2019-04-06T15:56:40.405Z,12.84
2019-04-06T15:59:22.483Z,12.68
2019-04-06T16:02:08.730Z,12.69
2019-04-06T16:04:48.051Z,12.63
2019-04-06T16:07:33.419Z,12.56
2019-04-06T16:10:17.290Z,12.81
2019-04-06T16:12:59.697Z,12.59
2019-04-06T16:15:42.440Z,12.35
2019-04-06T16:18:29.144Z,12.57
2019-04-06T16:21:02.616Z,12.57
2019-04-06T16:23:35.782Z,12.59
2019-04-06T16:26:17.880Z,12.50
2019-04-06T16:28:48.120Z,12.71
2019-04-06T16:31:34.531Z,12.68
2019-04-06T16:34:20.945Z,12.73
2019-04-06T16:37:07.165Z,12.75
2019-04-06T16:39:43.514Z,12.79
2019-04-06T16:42:29.836Z,12.67
2019-04-06T16:45:05.691Z,12.62
2019-04-06T16:47:35.882Z,12.69
2019-04-06T16:50:15.620Z,12.73
2019-04-06T16:52:45.642Z,12.60
2019-04-06T16:55:33.623Z,12.53
2019-04-06T16:58:18.757Z,12.55
2019-04-06T17:01:06.979Z,12.37
2019-04-06T17:03:37.603Z,12.31
2019-04-06T17:06:13.902Z,12.25
2019-04-06T17:08:49.781Z,12.11
2019-04-06T17:11:36.276Z,12.12
2019-04-06T17:14:06.651Z,12.02
2019-04-06T17:16:52.114Z,11.87
2019-04-06T17:19:31.259Z,11.89
2019-04-06T17:22:06.864Z,12.00
2019-04-06T17:24:40.141Z,11.76
2019-04-06T17:27:12.962Z,11.59
2019-04-06T17:29:58.147Z,11.46
2019-04-06T17:32:37.210Z,11.41
2019-04-06T17:35:07.378Z,11.46
2019-04-06T17:37:53.618Z,11.40
2019-04-06T17:40:26.744Z,11.26
2019-04-06T17:42:57.161Z,11.20
2019-04-06T17:45:30.240Z,11.23
2019-04-06T17:48:06.043Z,11.21
2019-04-06T17:50:42.248Z,11.36
2019-04-06T17:53:28.282Z,11.00
2019-04-06T17:55:59.551Z,10.91
2019-04-06T17:58:33.235Z,10.79
2019-04-06T18:01:06.483Z,10.76
2019-04-06T18:03:51.903Z,10.67
2019-04-06T18:06:31.298Z,10.64
2019-04-06T18:09:07.689Z,10.51
2019-04-06T18:11:44.582Z,10.48
2019-04-06T18:14:13.388Z,10.41
2019-04-06T18:16:41.996Z,10.41
2019-04-06T18:19:10.431Z,10.33
2019-04-06T18:21:39.182Z,10.29
2019-04-06T18:24:07.625Z,10.10
2019-04-06T18:26:36.088Z,10.12
2019-04-06T18:29:04.996Z,10.09
2019-04-06T18:31:44.567Z,9.90
2019-04-06T18:34:13.682Z,9.68
2019-04-06T18:36:44.382Z,9.53
2019-04-06T18:39:14.642Z,9.54
2019-04-06T18:41:43.529Z,9.43
2019-04-06T18:44:12.045Z,9.37
2019-04-06T18:46:40.596Z,9.31
2019-04-06T18:49:09.115Z,9.24
2019-04-06T18:51:37.732Z,9.21
2019-04-06T18:54:08.326Z,9.16
2019-04-06T18:56:36.493Z,9.07
2019-04-06T18:59:05.323Z,9.12
2019-04-06T19:01:33.833Z,8.64
2019-04-06T19:04:02.388Z,8.68
2019-04-06T19:06:30.906Z,8.17
2019-04-06T19:08:59.598Z,8.25
2019-04-06T19:11:28.146Z,8.46
2019-04-06T19:13:56.749Z,8.35
2019-04-06T19:16:25.253Z,8.05
2019-04-06T19:18:53.827Z,8.15
2019-04-06T19:21:22.304Z,8.09
2019-04-06T19:23:50.799Z,8.09
2019-04-06T19:26:19.446Z,7.92
2019-04-06T19:28:47.900Z,7.94
2019-04-06T19:31:16.902Z,7.70
2019-04-06T19:33:45.717Z,7.50
2019-04-06T19:36:14.709Z,7.38
2019-04-06T19:38:43.816Z,7.34
2019-04-06T19:41:12.463Z,7.53
2019-04-06T19:43:40.992Z,7.30
2019-04-06T19:46:09.488Z,7.26
2019-04-06T19:48:40.385Z,7.23
2019-04-06T19:51:08.643Z,7.28
2019-04-06T19:53:37.864Z,7.16
2019-04-06T19:56:06.584Z,7.21
2019-04-06T19:58:35.122Z,6.96
2019-04-06T20:01:03.611Z,6.87
2019-04-06T20:03:36.971Z,6.94
2019-04-06T20:06:02.710Z,6.83
2019-04-06T20:08:31.144Z,6.61
2019-04-06T20:10:59.783Z,6.75
2019-04-06T20:13:29.456Z,6.53
2019-04-06T20:15:58.198Z,6.39
2019-04-06T20:18:26.648Z,6.47
2019-04-06T20:20:55.230Z,6.57
2019-04-06T20:23:24.229Z,6.53
2019-04-06T20:25:53.092Z,6.51
2019-04-06T20:28:22.178Z,6.72
2019-04-06T20:30:50.864Z,6.66
2019-04-06T20:33:20.541Z,6.62
2019-04-06T20:35:49.203Z,6.43
2019-04-06T20:38:17.712Z,6.50
2019-04-06T20:40:46.343Z,6.44
2019-04-06T20:43:14.817Z,6.53
2019-04-06T20:45:43.750Z,6.62
2019-04-06T20:48:12.186Z,6.67
2019-04-06T20:50:40.869Z,6.76
2019-04-06T20:53:09.894Z,6.60
2019-04-06T20:55:38.740Z,6.70
2019-04-06T20:58:07.395Z,6.61
2019-04-06T21:00:36.255Z,6.67
2019-04-06T21:03:05.211Z,6.48
2019-04-06T21:05:33.698Z,6.49
2019-04-06T21:08:02.282Z,6.40
2019-04-06T21:10:30.733Z,6.43
2019-04-06T21:12:59.232Z,6.31
2019-04-06T21:15:28.293Z,6.20
2019-04-06T21:17:56.846Z,6.14
2019-04-06T21:20:25.275Z,5.64
2019-04-06T21:22:53.715Z,5.75
2019-04-06T21:25:22.269Z,5.77
2019-04-06T21:27:51.353Z,5.79
2019-04-06T21:30:20.028Z,5.78
2019-04-06T21:32:48.865Z,5.97
2019-04-06T21:35:17.973Z,5.86
2019-04-06T21:37:46.665Z,5.93
2019-04-06T21:40:15.886Z,6.05
2019-04-06T21:42:45.863Z,5.95
2019-04-06T21:45:15.261Z,5.73
2019-04-06T21:47:44.227Z,6.02
2019-04-06T21:50:12.841Z,5.98
2019-04-06T21:52:41.368Z,5.90
2019-04-06T21:55:13.726Z,5.79
2019-04-06T21:57:43.068Z,5.85
2019-04-06T22:00:14.137Z,5.90
2019-04-06T22:02:42.706Z,5.89
2019-04-06T22:05:11.526Z,5.75
2019-04-06T22:07:48.131Z,5.63
2019-04-06T22:10:11.921Z,5.70
2019-04-06T22:12:41.475Z,5.62
2019-04-06T22:15:12.807Z,5.63
2019-04-06T22:17:41.229Z,5.39
2019-04-06T22:20:09.832Z,5.40
2019-04-06T22:22:38.246Z,5.35
2019-04-06T22:25:07.473Z,5.29
2019-04-06T22:27:35.995Z,5.15
2019-04-06T22:30:09.573Z,4.95
2019-04-06T22:32:38.329Z,5.33
2019-04-06T22:35:07.813Z,5.27
2019-04-06T22:37:37.175Z,5.15
2019-04-06T22:40:07.485Z,4.97
2019-04-06T22:42:36.594Z,5.12
2019-04-06T22:45:08.350Z,4.94
2019-04-06T22:47:37.124Z,5.02
2019-04-06T22:50:07.582Z,5.01
2019-04-06T22:52:36.666Z,4.90
2019-04-06T22:55:07.328Z,5.25
2019-04-06T22:57:36.103Z,5.10
2019-04-06T23:00:08.236Z,4.96
2019-04-06T23:02:44.195Z,4.88
2019-04-06T23:05:29.540Z,4.92
2019-04-06T23:07:58.739Z,4.74
2019-04-06T23:10:27.728Z,4.75
2019-04-06T23:12:56.459Z,5.05
2019-04-06T23:15:25.474Z,4.82
2019-04-06T23:17:54.393Z,4.77
2019-04-06T23:20:22.915Z,4.79
2019-04-06T23:22:51.520Z,4.70
2019-04-06T23:25:19.950Z,4.75
2019-04-06T23:27:48.515Z,4.75
2019-04-06T23:30:18.111Z,4.69
2019-04-06T23:32:46.692Z,4.74
2019-04-06T23:35:15.258Z,4.79
2019-04-06T23:37:43.761Z,4.84
2019-04-06T23:40:12.356Z,4.83
2019-04-06T23:42:40.783Z,4.69
2019-04-06T23:45:09.229Z,4.73
2019-04-06T23:47:37.765Z,4.69
2019-04-06T23:50:07.631Z,4.61
2019-04-06T23:52:36.488Z,4.69
2019-04-06T23:55:07.515Z,4.61
2019-04-06T23:57:36.093Z,4.64
